Time;durP1;ratioP1;P1;durP2;ratioP2;P2;SDS_P1;SDS_P2;PMS_P1;PMS_P2;Temp;Humidity;BMP_temperature;BMP_pressure;BME280_temperature;BME280_humidity;BME280_pressure;Samples;Min_cycle;Max_cycle;Signal;HPM_P1;HPM_P2
2022/10/07 00:01:45;;;;;;;10.75;2.08;;;;;;;8.03;100.00;101989.69;5221558;28;20033;-77
2022/10/07 00:04:15;;;;;;;10.23;2.00;;;;;;;7.96;100.00;101985.34;5221699;28;20563;-77
2022/10/07 00:06:46;;;;;;;7.13;1.70;;;;;;;7.85;100.00;101989.72;5221072;28;20037;-77
2022/10/07 00:09:16;;;;;;;8.82;1.80;;;;;;;7.85;100.00;101981.91;5203646;28;20017;-77
2022/10/07 00:11:46;;;;;;;10.23;2.10;;;;;;;7.74;100.00;101987.09;5220575;28;20078;-77
2022/10/07 00:14:16;;;;;;;11.43;2.33;;;;;;;7.64;100.00;101980.19;5221477;28;20029;-77
2022/10/07 00:16:47;;;;;;;9.32;1.90;;;;;;;7.70;100.00;101981.94;5220896;28;20152;-77
2022/10/07 00:19:17;;;;;;;6.50;1.98;;;;;;;7.60;100.00;101982.81;5220696;28;20028;-77
2022/10/07 00:21:47;;;;;;;11.35;2.08;;;;;;;7.59;100.00;101981.97;5221429;28;20104;-77
2022/10/07 00:24:18;;;;;;;8.38;1.85;;;;;;;7.46;100.00;101980.22;5221614;28;20397;-77
2022/10/07 00:26:48;;;;;;;9.52;1.63;;;;;;;7.37;100.00;101968.97;5221034;28;20021;-77
2022/10/07 00:29:18;;;;;;;7.07;1.70;;;;;;;7.38;100.00;101974.13;5221070;28;20036;-77
2022/10/07 00:31:49;;;;;;;9.70;2.25;;;;;;;7.37;100.00;101975.00;5221579;28;20025;-77
2022/10/07 00:34:19;;;;;;;9.75;1.90;;;;;;;7.34;100.00;101966.38;5202286;28;20111;-77
2022/10/07 00:36:49;;;;;;;6.88;1.60;;;;;;;7.43;100.00;101964.63;5213901;28;20040;-76
2022/10/07 00:39:20;;;;;;;5.32;1.85;;;;;;;7.20;100.00;101969.81;5214752;28;20742;-77
2022/10/07 00:41:51;;;;;;;6.32;1.63;;;;;;;7.10;100.00;101963.75;5218493;28;20206;-77
2022/10/07 00:44:30;;;;;;;6.00;1.55;;;;;;;7.14;100.00;101954.22;5235493;22;20053;-74
2022/10/07 00:47:12;;;;;;;7.78;2.03;;;;;;;7.11;100.00;101954.22;5217461;28;20037;-74
2022/10/07 00:49:55;;;;;;;9.98;1.90;;;;;;;7.05;100.00;101951.59;5216450;28;20028;-74
2022/10/07 00:52:30;;;;;;;10.70;1.85;;;;;;;7.02;100.00;101938.63;5220297;28;20059;-73
2022/10/07 00:55:04;;;;;;;13.38;2.40;;;;;;;7.03;100.00;101945.53;5239612;28;20032;-74
2022/10/07 00:57:36;;;;;;;11.40;2.33;;;;;;;7.07;100.00;101942.09;5239776;28;20404;-73
2022/10/07 01:00:08;;;;;;;5.30;1.58;;;;;;;7.02;100.00;101944.69;5240917;28;20023;-74
2022/10/07 01:02:38;;;;;;;8.00;1.80;;;;;;;7.00;100.00;101942.94;5240704;28;20028;-74
2022/10/07 01:05:10;;;;;;;10.07;1.90;;;;;;;6.93;100.00;101938.63;5241334;28;20035;-74
2022/10/07 01:07:42;;;;;;;6.28;1.60;;;;;;;7.07;100.00;101935.16;5236325;28;20027;-74
2022/10/07 01:10:17;;;;;;;8.30;1.63;;;;;;;6.71;100.00;101931.63;5242173;28;20043;-74
2022/10/07 01:13:17;;;;;;;5.95;1.52;;;;;;;6.81;100.00;101923.88;5244495;28;20032;-74
2022/10/07 01:16:06;;;;;;;9.90;1.58;;;;;;;6.91;100.00;101922.16;5241908;28;20028;-74
2022/10/07 01:18:48;;;;;;;8.13;1.67;;;;;;;7.01;100.00;101914.38;5244547;28;20052;-74
2022/10/07 01:21:39;;;;;;;7.18;1.63;;;;;;;6.92;100.00;101916.09;5245168;28;20020;-74
2022/10/07 01:24:32;;;;;;;7.53;1.73;;;;;;;7.00;100.00;101894.44;5245020;28;20474;-74
2022/10/07 01:27:13;;;;;;;8.93;1.83;;;;;;;7.05;100.00;101903.09;5243667;28;20032;-73
2022/10/07 01:29:54;;;;;;;10.73;1.50;;;;;;;7.10;100.00;101905.72;5244455;28;20032;-74
2022/10/07 01:32:35;;;;;;;6.05;1.60;;;;;;;7.01;100.00;101884.91;5244189;28;20039;-74
2022/10/07 01:35:11;;;;;;;10.20;2.00;;;;;;;6.97;100.00;101893.56;5244376;28;20533;-74
2022/10/07 01:37:47;;;;;;;6.03;1.50;;;;;;;6.92;100.00;101890.13;5239628;28;20037;-74
2022/10/07 01:40:26;;;;;;;8.10;1.83;;;;;;;6.79;100.00;101894.41;5242928;28;20082;-73
2022/10/07 01:42:57;;;;;;;8.63;1.95;;;;;;;6.77;100.00;101882.31;5223906;28;20024;-74
2022/10/07 01:45:29;;;;;;;7.18;1.73;;;;;;;6.73;100.00;101884.03;5244344;28;20052;-74
2022/10/07 01:48:00;;;;;;;5.38;1.52;;;;;;;6.80;100.00;101885.75;5225684;28;20032;-74
2022/10/07 01:50:31;;;;;;;9.95;2.00;;;;;;;6.72;100.00;101881.41;5244072;28;20032;-74
2022/10/07 01:53:11;;;;;;;9.20;1.83;;;;;;;6.61;100.00;101876.22;5226443;28;20067;-74
2022/10/07 01:55:54;;;;;;;8.40;2.03;;;;;;;6.63;100.00;101871.03;5244251;28;20121;-74
2022/10/07 01:58:57;;;;;;;6.20;1.88;;;;;;;6.73;100.00;101867.59;5243326;28;20037;-74
2022/10/07 02:01:56;;;;;;;12.90;2.20;;;;;;;6.80;100.00;101862.38;5224608;28;20509;-74
2022/10/07 02:04:35;;;;;;;8.70;2.10;;;;;;;6.81;100.00;101868.44;5242309;28;20032;-74
2022/10/07 02:07:17;;;;;;;11.18;2.08;;;;;;;6.84;100.00;101864.13;5243692;28;20052;-74
2022/10/07 02:10:15;;;;;;;8.75;1.92;;;;;;;6.92;100.00;101862.38;5239522;28;20228;-73
2022/10/07 02:12:45;;;;;;;11.07;2.08;;;;;;;6.92;100.00;101849.38;5240085;28;20036;-73
2022/10/07 02:15:22;;;;;;;12.80;2.10;;;;;;;7.08;100.00;101853.72;5244063;28;20024;-73
2022/10/07 02:17:57;;;;;;;10.95;2.10;;;;;;;7.07;100.00;101841.59;5243262;28;20294;-74
2022/10/07 02:20:33;;;;;;;6.75;2.20;;;;;;;7.13;100.00;101848.50;5243505;28;20039;-74
2022/10/07 02:23:06;;;;;;;11.63;2.67;;;;;;;6.97;100.00;101846.78;5225282;28;20024;-74
2022/10/07 02:25:43;;;;;;;8.05;2.20;;;;;;;6.98;100.00;101844.22;5243705;28;20031;-73
2022/10/07 02:28:18;;;;;;;8.63;2.03;;;;;;;6.86;100.00;101851.13;5243584;28;20035;-73
2022/10/07 02:30:52;;;;;;;6.57;2.08;;;;;;;6.97;100.00;101836.41;5244257;28;20204;-73
2022/10/07 02:33:26;;;;;;;9.13;2.40;;;;;;;6.94;100.00;101846.81;5244047;28;20036;-73
2022/10/07 02:36:01;;;;;;;12.30;2.55;;;;;;;6.91;100.00;101837.25;5243371;28;20128;-74
2022/10/07 02:38:32;;;;;;;9.50;2.53;;;;;;;6.92;100.00;101833.78;5242468;28;20028;-73
2022/10/07 02:41:32;;;;;;;9.88;2.60;;;;;;;6.94;100.00;101831.22;5242919;28;20525;-74
2022/10/07 02:44:15;;;;;;;8.70;2.78;;;;;;;6.89;100.00;101843.31;5242545;28;20028;-73
2022/10/07 02:46:54;;;;;;;15.77;7.28;;;;;;;6.95;100.00;101833.78;5239234;28;20028;-74
2022/10/07 02:49:27;;;;;;;9.43;4.30;;;;;;;7.07;100.00;101827.75;5242388;28;20036;-74
2022/10/07 02:52:04;;;;;;;23.73;14.15;;;;;;;6.97;100.00;101828.59;5243444;28;20493;-73
2022/10/07 02:54:41;;;;;;;19.95;7.90;;;;;;;6.93;100.00;101829.47;5243799;28;20059;-74
2022/10/07 02:57:16;;;;;;;15.32;4.10;;;;;;;6.81;100.00;101829.47;5220872;28;20063;-73
2022/10/07 02:59:49;;;;;;;10.02;2.65;;;;;;;6.76;100.00;101823.44;5243292;28;20025;-74
2022/10/07 03:02:26;;;;;;;7.63;2.85;;;;;;;6.69;100.00;101826.88;5243275;28;20105;-74
2022/10/07 03:04:57;;;;;;;11.00;4.00;;;;;;;6.76;100.00;101826.88;5242970;28;20028;-74
2022/10/07 03:07:27;;;;;;;12.43;3.30;;;;;;;6.75;100.00;101822.53;5242156;28;20024;-74
2022/10/07 03:09:58;;;;;;;10.55;2.58;;;;;;;6.77;100.00;101822.56;5241967;28;20020;-73
2022/10/07 03:12:28;;;;;;;10.95;3.80;;;;;;;6.76;100.00;101816.47;5242569;28;20381;-74
2022/10/07 03:14:58;;;;;;;12.30;5.22;;;;;;;6.68;100.00;101820.81;5243018;28;20036;-73
2022/10/07 03:17:29;;;;;;;7.57;3.00;;;;;;;6.67;100.00;101818.22;5241059;28;20509;-73
2022/10/07 03:19:59;;;;;;;10.90;3.05;;;;;;;6.47;100.00;101825.13;5242892;28;20072;-73
2022/10/07 03:22:29;;;;;;;7.85;2.63;;;;;;;6.48;100.00;101813.88;5242871;28;20043;-74
2022/10/07 03:24:59;;;;;;;9.35;3.00;;;;;;;6.62;100.00;101818.22;5242590;28;20039;-74
2022/10/07 03:27:30;;;;;;;8.95;2.85;;;;;;;6.67;100.00;101813.03;5242186;28;20412;-72
2022/10/07 03:30:00;;;;;;;7.75;2.47;;;;;;;6.62;100.00;101810.41;5242036;28;20035;-73
2022/10/07 03:32:31;;;;;;;13.25;2.70;;;;;;;6.45;100.00;101808.69;5242067;28;20711;-73
2022/10/07 03:35:01;;;;;;;9.95;2.70;;;;;;;6.52;100.00;101805.22;5242399;28;20028;-74
2022/10/07 03:37:31;;;;;;;9.25;2.50;;;;;;;6.42;100.00;101806.09;5240428;28;20032;-73
2022/10/07 03:40:02;;;;;;;7.82;2.60;;;;;;;6.49;100.00;101797.44;5241989;28;20032;-73
2022/10/07 03:42:32;;;;;;;7.30;2.40;;;;;;;6.52;100.00;101794.84;5242194;28;20035;-74
2022/10/07 03:45:04;;;;;;;11.73;2.50;;;;;;;6.55;100.00;101797.44;5242154;28;20648;-73
2022/10/07 03:47:35;;;;;;;13.13;3.95;;;;;;;6.43;100.00;101803.47;5241071;28;20056;-74
2022/10/07 03:50:05;;;;;;;9.05;2.58;;;;;;;6.38;100.00;101792.25;5240887;28;20044;-74
2022/10/07 03:52:36;;;;;;;11.48;2.88;;;;;;;6.34;100.00;101797.41;5241362;28;20028;-74
2022/10/07 03:55:07;;;;;;;10.40;2.63;;;;;;;6.32;100.00;101794.84;5242146;28;20059;-74
2022/10/07 03:57:49;;;;;;;10.30;3.58;;;;;;;6.38;100.00;101786.16;5241292;28;20028;-74
2022/10/07 04:00:22;;;;;;;9.63;3.95;;;;;;;6.35;100.00;101783.56;5238347;28;20035;-73
2022/10/07 04:02:52;;;;;;;8.77;2.75;;;;;;;6.33;100.00;101782.72;5241106;28;20029;-74
2022/10/07 04:05:22;;;;;;;7.35;2.80;;;;;;;6.19;100.00;101781.81;5241060;28;20050;-74
2022/10/07 04:07:53;;;;;;;6.80;2.47;;;;;;;6.08;100.00;101776.63;5240412;28;20016;-73
2022/10/07 04:10:24;;;;;;;13.68;3.92;;;;;;;6.11;100.00;101771.44;5241732;28;20032;-74
2022/10/07 04:12:54;;;;;;;7.30;2.33;;;;;;;6.06;100.00;101778.34;5215374;28;20146;-74
2022/10/07 04:15:25;;;;;;;8.05;2.40;;;;;;;6.11;100.00;101775.78;5223754;28;20486;-74
2022/10/07 04:17:58;;;;;;;5.53;2.25;;;;;;;6.13;100.00;101771.44;5222994;28;20455;-74
2022/10/07 04:20:29;;;;;;;8.68;2.17;;;;;;;6.15;100.00;101761.94;5241702;28;20719;-74
2022/10/07 04:22:59;;;;;;;9.32;2.80;;;;;;;6.21;100.00;101761.91;5222721;28;20124;-74
2022/10/07 04:25:32;;;;;;;13.80;4.35;;;;;;;6.19;100.00;101763.66;5240619;28;20425;-73
2022/10/07 04:28:05;;;;;;;13.73;3.30;;;;;;;6.41;100.00;101760.22;5240691;28;20032;-74
2022/10/07 04:30:42;;;;;;;17.20;6.15;;;;;;;6.36;100.00;101761.94;5241616;28;20106;-74
2022/10/07 04:33:12;;;;;;;9.40;2.50;;;;;;;6.47;100.00;101765.41;5237574;28;20035;-73
2022/10/07 04:35:44;;;;;;;22.58;8.80;;;;;;;6.39;100.00;101756.78;5241607;28;20386;-74
2022/10/07 04:38:16;;;;;;;11.63;3.17;;;;;;;6.28;100.00;101759.34;5240804;28;20040;-74
2022/10/07 04:40:51;;;;;;;10.27;2.90;;;;;;;6.27;100.00;101761.94;5240697;28;20021;-73
2022/10/07 04:43:22;;;;;;;11.40;3.03;;;;;;;6.30;100.00;101768.03;5240817;28;20029;-74
2022/10/07 04:46:04;;;;;;;10.60;2.88;;;;;;;6.20;100.00;101755.00;5244897;28;20889;-73
2022/10/07 04:48:34;;;;;;;10.05;2.90;;;;;;;6.12;100.00;101759.34;5245274;28;20135;-73
2022/10/07 04:51:07;;;;;;;12.88;2.75;;;;;;;6.22;100.00;101754.16;5245504;28;20120;-74
2022/10/07 04:53:37;;;;;;;10.07;2.72;;;;;;;6.15;100.00;101751.53;5244929;28;20032;-73
2022/10/07 04:56:10;;;;;;;8.38;2.38;;;;;;;6.19;100.00;101761.06;5245620;28;20028;-73
2022/10/07 04:58:40;;;;;;;9.18;2.53;;;;;;;6.10;100.00;101755.88;5240409;28;20074;-73
2022/10/07 05:01:10;;;;;;;11.15;2.42;;;;;;;6.12;100.00;101756.75;5244535;28;20401;-74
2022/10/07 05:03:41;;;;;;;8.57;2.55;;;;;;;6.00;100.00;101752.41;5245503;28;20029;-74
2022/10/07 05:06:11;;;;;;;9.82;2.50;;;;;;;6.00;100.00;101751.53;5244481;28;20028;-73
2022/10/07 05:08:42;;;;;;;7.75;2.58;;;;;;;6.03;100.00;101755.00;5244573;28;20071;-74
2022/10/07 05:11:13;;;;;;;10.50;2.75;;;;;;;6.11;100.00;101755.00;5244401;28;20028;-74
2022/10/07 05:13:43;;;;;;;10.35;2.97;;;;;;;6.07;100.00;101748.94;5244688;28;20398;-73
2022/10/07 05:16:13;;;;;;;10.02;2.65;;;;;;;6.10;100.00;101742.91;5243916;28;20031;-73
2022/10/07 05:18:44;;;;;;;9.82;2.88;;;;;;;6.20;100.00;101740.31;5244904;28;20475;-73
2022/10/07 05:21:14;;;;;;;14.95;2.92;;;;;;;6.37;100.00;101746.38;5245019;28;20028;-74
2022/10/07 05:23:44;;;;;;;10.52;3.10;;;;;;;6.48;100.00;101736.88;5243994;28;20470;-74
2022/10/07 05:26:14;;;;;;;7.15;2.85;;;;;;;6.39;100.00;101741.19;5243413;28;20107;-73
2022/10/07 05:28:47;;;;;;;10.13;2.55;;;;;;;6.25;100.00;101742.91;5242471;28;20205;-73
2022/10/07 05:31:17;;;;;;;13.05;3.00;;;;;;;6.23;100.00;101734.28;5226322;28;20115;-74
2022/10/07 05:33:50;;;;;;;11.15;2.45;;;;;;;6.10;100.00;101735.13;5243556;28;20589;-73
2022/10/07 05:36:21;;;;;;;7.50;2.60;;;;;;;6.14;100.00;101731.66;5243933;28;20654;-73
2022/10/07 05:38:56;;;;;;;10.95;2.50;;;;;;;6.17;100.00;101723.84;5243631;28;20094;-73
2022/10/07 05:41:27;;;;;;;14.15;2.40;;;;;;;6.30;100.00;101725.59;5244708;28;20040;-74
2022/10/07 05:43:59;;;;;;;10.10;2.40;;;;;;;6.14;100.00;101729.94;5242849;28;20069;-73
2022/10/07 05:46:29;;;;;;;9.10;2.67;;;;;;;6.04;100.00;101723.00;5242264;28;20028;-73
2022/10/07 05:48:59;;;;;;;9.40;2.63;;;;;;;6.02;100.00;101714.34;5242755;28;20500;-74
2022/10/07 05:51:29;;;;;;;6.15;2.60;;;;;;;6.03;100.00;101720.38;5243512;28;20033;-74
2022/10/07 05:54:00;;;;;;;12.35;2.92;;;;;;;6.16;100.00;101716.94;5242390;28;20025;-73
2022/10/07 05:56:31;;;;;;;7.07;2.45;;;;;;;6.31;100.00;101715.22;5241664;28;20062;-73
2022/10/07 05:59:02;;;;;;;10.57;2.65;;;;;;;6.26;100.00;101709.16;5242715;28;20017;-74
2022/10/07 06:01:32;;;;;;;12.48;2.97;;;;;;;6.38;100.00;101703.09;5218552;28;20405;-73
2022/10/07 06:04:02;;;;;;;12.23;2.88;;;;;;;6.32;100.00;101703.09;5243853;28;20089;-73
2022/10/07 06:06:34;;;;;;;9.35;2.72;;;;;;;6.35;100.00;101710.88;5243552;28;20552;-73
2022/10/07 06:14:43;;;;;;;8.73;2.70;;;;;;;6.70;100.00;101712.59;5240570;28;20132;-74
2022/10/07 06:17:13;;;;;;;8.80;2.67;;;;;;;6.73;100.00;101694.41;5243594;28;20074;-73
2022/10/07 06:19:43;;;;;;;12.57;3.10;;;;;;;6.73;100.00;101694.41;5243250;28;20033;-74
2022/10/07 06:22:14;;;;;;;6.28;2.40;;;;;;;6.86;100.00;101697.81;5225652;28;20117;-73
2022/10/07 06:24:44;;;;;;;11.52;2.67;;;;;;;7.07;100.00;101702.97;5243782;28;20024;-73
2022/10/07 06:27:14;;;;;;;7.80;2.75;;;;;;;7.08;100.00;101710.75;5243285;28;20532;-73
2022/10/07 06:29:44;;;;;;;9.73;2.55;;;;;;;7.12;100.00;101702.06;5243970;28;20017;-74
2022/10/07 06:32:15;;;;;;;8.82;3.00;;;;;;;7.22;100.00;101706.38;5243789;28;20194;-73
2022/10/07 06:34:45;;;;;;;9.75;3.13;;;;;;;7.29;100.00;101706.34;5243465;28;20020;-74
2022/10/07 06:37:15;;;;;;;7.65;2.30;;;;;;;7.40;100.00;101708.91;5241689;28;20098;-73
2022/10/07 06:39:46;;;;;;;7.28;2.45;;;;;;;7.48;100.00;101702.78;5243377;28;20036;-72
2022/10/07 06:42:16;;;;;;;10.15;3.33;;;;;;;7.48;100.00;101702.78;5242766;28;20028;-73
2022/10/07 06:44:46;;;;;;;6.63;2.58;;;;;;;7.71;100.00;101705.25;5258255;22;20045;-78
2022/10/07 06:47:17;;;;;;;8.90;2.53;;;;;;;7.70;100.00;101712.19;5202841;28;20406;-77
2022/10/07 06:49:47;;;;;;;9.90;2.65;;;;;;;7.82;100.00;101704.31;5221896;28;20020;-76
2022/10/07 06:52:17;;;;;;;13.23;2.85;;;;;;;7.95;100.00;101702.50;5222239;28;20486;-77
2022/10/07 06:54:47;;;;;;;11.85;3.15;;;;;;;8.06;100.00;101704.13;5221699;28;20546;-76
2022/10/07 06:57:18;;;;;;;11.32;2.42;;;;;;;8.29;100.00;101707.47;5220849;28;20024;-77
2022/10/07 06:59:48;;;;;;;11.45;2.60;;;;;;;8.38;100.00;101702.16;5222195;28;20031;-76
2022/10/07 07:02:18;;;;;;;8.77;2.55;;;;;;;8.54;100.00;101703.75;5222673;28;20370;-76
2022/10/07 07:04:49;;;;;;;10.15;2.20;;;;;;;8.62;100.00;101703.69;5222303;28;20032;-76
2022/10/07 07:07:20;;;;;;;14.02;2.88;;;;;;;8.78;100.00;101702.66;5220788;28;20036;-77
2022/10/07 07:09:51;;;;;;;7.68;2.22;;;;;;;9.22;100.00;101699.56;5221644;28;20029;-77
2022/10/07 07:12:24;;;;;;;9.02;2.33;;;;;;;9.52;100.00;101693.06;5203683;28;20044;-77
2022/10/07 07:14:54;;;;;;;5.38;2.00;;;;;;;10.28;100.00;101691.06;5203671;28;20023;-77
2022/10/07 07:17:24;;;;;;;10.00;2.00;;;;;;;10.98;100.00;101686.28;5220296;28;20240;-77
2022/10/07 07:19:55;;;;;;;9.27;2.10;;;;;;;12.29;89.75;101677.25;5204039;28;20044;-77
2022/10/07 07:22:25;;;;;;;7.53;1.88;;;;;;;13.78;84.21;101672.13;5221659;28;20291;-77
2022/10/07 07:24:55;;;;;;;7.13;1.85;;;;;;;15.35;77.34;101661.41;5221798;28;20025;-77
2022/10/07 07:27:26;;;;;;;8.73;1.85;;;;;;;15.58;74.14;101662.25;5221043;28;20090;-77
2022/10/07 07:29:57;;;;;;;5.93;1.65;;;;;;;15.52;76.27;101673.00;5221637;28;20021;-77
2022/10/07 07:32:29;;;;;;;9.48;1.92;;;;;;;16.51;73.66;101654.91;5221923;28;20033;-77
2022/10/07 07:35:03;;;;;;;6.80;1.83;;;;;;;16.06;73.51;101662.94;5221249;28;20024;-77
2022/10/07 07:37:33;;;;;;;6.45;1.70;;;;;;;17.10;71.25;101651.38;5221021;28;20029;-77
2022/10/07 07:40:04;;;;;;;5.95;1.70;;;;;;;17.08;70.36;101656.75;5221976;28;20507;-78
2022/10/07 07:42:36;;;;;;;6.18;1.55;;;;;;;18.57;67.22;101644.22;5222142;28;20024;-78
2022/10/07 07:45:06;;;;;;;8.73;1.55;;;;;;;20.40;64.03;101638.34;5221062;28;20032;-77
2022/10/07 07:47:37;;;;;;;9.70;2.13;;;;;;;19.04;64.78;101646.09;5221272;28;20083;-78
2022/10/07 07:50:07;;;;;;;7.18;1.73;;;;;;;18.49;66.65;101644.59;5222207;28;20035;-78
2022/10/07 07:52:38;;;;;;;6.65;1.75;;;;;;;17.77;68.56;101644.69;5222216;28;20116;-78
2022/10/07 07:55:08;;;;;;;8.37;1.87;;;;;;;17.21;70.56;101651.75;5222286;28;20079;-78
2022/10/07 07:57:38;;;;;;;6.57;1.60;;;;;;;16.50;74.29;101646.16;5221058;28;20283;-77
2022/10/07 08:00:10;;;;;;;6.03;1.65;;;;;;;16.60;71.98;101642.22;5221907;28;20275;-78
2022/10/07 08:02:42;;;;;;;7.07;1.52;;;;;;;16.51;74.06;101637.31;5221866;28;20549;-77
2022/10/07 08:05:12;;;;;;;6.45;1.60;;;;;;;16.68;73.43;101640.06;5221204;28;20035;-77
2022/10/07 08:07:44;;;;;;;7.75;1.65;;;;;;;16.43;73.84;101638.56;5221171;28;20029;-77
2022/10/07 08:10:14;;;;;;;4.85;1.75;;;;;;;17.76;70.08;101624.47;5220919;28;20036;-77
2022/10/07 08:12:44;;;;;;;10.82;1.63;;;;;;;18.12;69.08;101618.25;5221630;28;20525;-78
2022/10/07 08:15:15;;;;;;;5.17;1.53;;;;;;;18.93;70.58;101614.84;5221258;28;20025;-77
2022/10/07 08:17:45;;;;;;;6.72;1.60;;;;;;;19.07;66.55;101609.69;5220334;28;20279;-77
2022/10/07 08:20:16;;;;;;;6.90;1.77;;;;;;;18.36;70.21;101621.47;5219998;28;20032;-77
2022/10/07 08:22:46;;;;;;;8.40;1.70;;;;;;;19.47;66.35;101603.09;5221256;28;20087;-78
2022/10/07 08:25:17;;;;;;;6.32;1.50;;;;;;;19.97;65.81;101603.72;5221058;28;20279;-77
2022/10/07 08:27:47;;;;;;;7.45;1.73;;;;;;;20.48;63.05;101598.88;5220556;28;20382;-77
2022/10/07 08:30:18;;;;;;;9.07;1.85;;;;;;;20.16;64.89;101605.25;5220692;28;20369;-77
2022/10/07 08:32:48;;;;;;;7.70;1.40;;;;;;;22.63;59.23;101593.69;5220885;28;20039;-77
2022/10/07 08:35:18;;;;;;;6.70;1.60;;;;;;;22.58;59.51;101582.50;5220594;28;20023;-77
2022/10/07 08:37:49;;;;;;;5.07;1.55;;;;;;;22.38;59.13;101582.97;5220154;28;20025;-77
2022/10/07 08:40:19;;;;;;;7.38;1.50;;;;;;;21.73;59.35;101578.53;5220781;28;20025;-77
2022/10/07 08:42:49;;;;;;;5.47;1.30;;;;;;;21.41;60.43;101587.72;5221278;28;20474;-77
2022/10/07 08:45:28;;;;;;;7.70;1.30;;;;;;;20.32;63.21;101583.97;5218992;28;20033;-77
2022/10/07 08:48:01;;;;;;;8.55;1.30;;;;;;;21.09;61.05;101575.59;5220305;28;20777;-77
2022/10/07 08:50:50;;;;;;;6.28;1.40;;;;;;;20.34;62.27;101580.28;5220669;28;20025;-77
2022/10/07 08:53:29;;;;;;;6.70;1.48;;;;;;;20.41;61.80;101581.63;5217254;28;20529;-77
2022/10/07 08:56:08;;;;;;;7.40;1.55;;;;;;;18.99;65.39;101581.88;5202872;28;20164;-77
2022/10/07 08:58:57;;;;;;;5.25;1.45;;;;;;;18.01;68.36;101575.56;5220653;28;20025;-77
2022/10/07 09:01:55;;;;;;;7.18;1.63;;;;;;;17.24;70.05;101567.91;5219142;28;20029;-77
2022/10/07 09:04:41;;;;;;;7.78;1.30;;;;;;;16.92;72.17;101570.31;5218404;28;20033;-77
2022/10/07 09:07:16;;;;;;;6.18;1.58;;;;;;;16.92;72.54;101570.31;5201362;28;20021;-77
2022/10/07 09:09:58;;;;;;;7.78;1.33;;;;;;;16.97;73.98;101565.72;5220912;28;20422;-77
2022/10/07 09:12:47;;;;;;;9.02;1.40;;;;;;;17.16;73.58;101564.75;5220702;28;20415;-76
2022/10/07 09:15:27;;;;;;;7.22;1.27;;;;;;;16.88;74.71;101568.75;5217344;28;20398;-77
2022/10/07 09:18:05;;;;;;;7.93;1.40;;;;;;;17.03;73.87;101555.72;5220078;28;20040;-77
2022/10/07 09:20:42;;;;;;;7.88;1.60;;;;;;;17.11;73.90;101547.44;5220483;28;20036;-77
2022/10/07 09:23:14;;;;;;;8.13;1.73;;;;;;;17.33;72.77;101545.47;5216608;28;20486;-77
2022/10/07 09:25:44;;;;;;;6.05;1.40;;;;;;;16.85;73.54;101547.78;5220284;28;20036;-77
2022/10/07 09:28:18;;;;;;;7.97;1.80;;;;;;;17.01;74.77;101548.78;5218546;28;20029;-76
2022/10/07 09:30:48;;;;;;;9.77;2.10;;;;;;;17.02;73.12;101540.78;5220977;28;20028;-76
2022/10/07 09:33:22;;;;;;;8.20;1.98;;;;;;;17.23;72.19;101534.50;5224208;28;20029;-76
2022/10/07 09:36:03;;;;;;;9.90;1.90;;;;;;;17.30;72.78;101537.72;5223620;28;20444;-77
2022/10/07 09:38:37;;;;;;;9.20;1.70;;;;;;;17.53;73.68;101532.19;5223767;28;20115;-76
2022/10/07 09:41:18;;;;;;;11.48;2.25;;;;;;;17.56;71.04;101527.63;5223992;28;20039;-77
2022/10/07 09:43:48;;;;;;;8.98;2.20;;;;;;;17.50;73.23;101527.06;5221012;28;20033;-76
2022/10/07 09:46:37;;;;;;;7.27;1.60;;;;;;;17.31;72.94;101520.91;5223727;28;20039;-77
2022/10/07 09:49:25;;;;;;;9.50;1.83;;;;;;;17.47;72.36;101514.00;5222577;28;20276;-77
2022/10/07 09:52:01;;;;;;;9.55;1.70;;;;;;;17.46;73.27;101505.19;5221918;28;20033;-76
2022/10/07 09:54:34;;;;;;;7.13;1.40;;;;;;;17.29;72.51;101501.66;5223233;28;20025;-76
2022/10/07 09:57:19;;;;;;;8.38;1.45;;;;;;;17.58;72.26;101501.97;5223429;28;20024;-77
2022/10/07 09:59:49;;;;;;;6.38;1.63;;;;;;;17.72;72.21;101506.56;5220616;28;20572;-76
2022/10/07 10:02:25;;;;;;;13.52;2.30;;;;;;;17.55;71.06;101498.59;5223635;28;20115;-76
2022/10/07 10:04:56;;;;;;;9.73;2.00;;;;;;;17.43;70.14;101507.13;5205567;28;20036;-76
2022/10/07 10:07:31;;;;;;;9.07;2.05;;;;;;;17.13;71.61;101495.38;5223033;28;20052;-76
2022/10/07 10:10:16;;;;;;;11.07;2.63;;;;;;;17.00;70.60;101507.44;5223825;28;20040;-77
2022/10/07 10:12:50;;;;;;;11.45;2.17;;;;;;;17.32;71.62;101501.50;5219996;28;20052;-76
2022/10/07 10:15:34;;;;;;;15.32;2.70;;;;;;;17.28;71.54;101497.28;5222369;28;20148;-76
2022/10/07 10:18:33;;;;;;;11.07;2.47;;;;;;;17.26;70.55;101496.47;5204629;28;20118;-76
2022/10/07 10:21:18;;;;;;;10.35;2.50;;;;;;;17.08;71.24;101495.59;5213648;28;20037;-77
2022/10/07 10:23:57;;;;;;;7.25;1.75;;;;;;;17.22;71.07;101490.50;5220560;28;20024;-76
2022/10/07 10:26:57;;;;;;;9.80;1.90;;;;;;;17.22;71.69;101487.00;5224602;28;20052;-76
2022/10/07 10:29:36;;;;;;;12.05;1.80;;;;;;;17.25;71.18;101479.78;5223012;28;20090;-76
2022/10/07 10:32:37;;;;;;;5.80;1.60;;;;;;;17.24;72.34;101471.91;5222360;28;20028;-77
2022/10/07 10:35:18;;;;;;;8.13;1.80;;;;;;;17.26;71.80;101472.69;5205389;28;20296;-77
2022/10/07 10:38:12;;;;;;;8.68;1.80;;;;;;;17.29;70.00;101464.66;5203275;28;20029;-76
2022/10/07 10:41:00;;;;;;;8.02;2.10;;;;;;;17.31;70.60;101462.78;5220412;28;20025;-77
2022/10/07 10:43:44;;;;;;;8.13;1.85;;;;;;;17.18;70.98;101459.00;5223396;28;20029;-77
2022/10/07 10:46:14;;;;;;;11.68;1.83;;;;;;;16.93;71.64;101461.09;5204972;28;20025;-76
2022/10/07 10:49:09;;;;;;;12.27;2.40;;;;;;;17.03;70.96;101446.53;5226986;28;20028;-77
2022/10/07 10:51:46;;;;;;;9.38;2.10;;;;;;;16.98;70.12;101438.81;5204843;28;20307;-77
2022/10/07 10:54:42;;;;;;;13.32;2.20;;;;;;;16.97;71.40;101436.28;5204765;28;20188;-77
2022/10/07 10:57:20;;;;;;;11.65;2.30;;;;;;;17.04;72.28;101437.69;5217858;28;20138;-76
2022/10/07 11:00:06;;;;;;;6.75;1.42;;;;;;;16.99;72.26;101426.50;5222779;28;20510;-77
2022/10/07 11:02:49;;;;;;;7.45;1.60;;;;;;;16.99;73.43;101418.56;5223407;28;20032;-77
2022/10/07 11:05:34;;;;;;;9.95;1.98;;;;;;;17.16;72.83;101416.81;5219667;28;20411;-77
2022/10/07 11:08:10;;;;;;;11.35;1.90;;;;;;;17.05;72.49;101405.94;5221563;28;20029;-77
2022/10/07 11:10:48;;;;;;;6.40;1.40;;;;;;;17.03;71.50;101409.56;5221395;28;20552;-77
2022/10/07 11:13:42;;;;;;;13.52;1.95;;;;;;;17.16;73.77;101395.66;5221919;28;20402;-77
2022/10/07 11:16:23;;;;;;;10.60;2.60;;;;;;;17.23;72.60;101398.88;5220392;28;20100;-77
2022/10/07 11:19:00;;;;;;;10.73;2.03;;;;;;;17.11;72.04;101388.94;5218347;28;20052;-76
2022/10/07 11:21:37;;;;;;;8.10;1.90;;;;;;;17.13;72.57;101389.69;5221785;28;20387;-77
2022/10/07 11:24:44;;;;;;;9.23;1.92;;;;;;;17.19;72.47;101384.09;5222743;28;20116;-76
2022/10/07 11:27:25;;;;;;;10.13;1.45;;;;;;;17.22;71.83;101374.25;5224031;28;20036;-77
2022/10/07 11:30:05;;;;;;;5.35;1.35;;;;;;;17.13;71.67;101372.03;5220930;28;20033;-76
2022/10/07 11:33:03;;;;;;;5.57;1.08;;;;;;;17.15;71.20;101364.91;5219896;28;20021;-77
2022/10/07 11:35:42;;;;;;;7.38;1.58;;;;;;;17.05;72.54;101358.38;5219827;28;20017;-77
2022/10/07 11:38:17;;;;;;;6.68;1.48;;;;;;;17.25;74.58;101352.94;5218866;28;20124;-77
2022/10/07 11:40:52;;;;;;;7.88;1.48;;;;;;;17.33;72.52;101355.22;5219705;28;20486;-76
2022/10/07 11:43:46;;;;;;;8.93;2.03;;;;;;;17.21;72.12;101337.31;5218643;28;20106;-77
2022/10/07 11:46:23;;;;;;;11.32;1.83;;;;;;;17.36;73.64;101333.94;5221309;28;20035;-77
2022/10/07 11:49:11;;;;;;;8.13;1.63;;;;;;;17.23;71.46;101332.81;5221540;28;20023;-77
2022/10/07 11:51:58;;;;;;;10.90;1.85;;;;;;;17.27;72.31;101323.78;5222364;28;20040;-77
2022/10/07 11:54:39;;;;;;;6.53;1.48;;;;;;;17.28;72.42;101320.25;5220911;28;20070;-77
2022/10/07 11:57:23;;;;;;;7.20;1.42;;;;;;;17.26;71.16;101319.44;5222368;28;20244;-77
2022/10/07 12:00:00;;;;;;;8.52;1.40;;;;;;;17.32;71.83;101316.50;5220071;28;20028;-77
2022/10/07 12:02:30;;;;;;;9.25;1.65;;;;;;;17.15;72.54;101308.56;5211160;28;20025;-76
2022/10/07 12:05:02;;;;;;;6.22;1.45;;;;;;;17.16;72.74;101300.56;5219390;28;20044;-77